Time;durP1;ratioP1;P1;durP2;ratioP2;P2;SDS_P1;SDS_P2;PMS_P1;PMS_P2;Temp;Humidity;BMP_temperature;BMP_pressure;BME280_temperature;BME280_humidity;BME280_pressure;Samples;Min_cycle;Max_cycle;Signal;HPM_P1;HPM_P2
2021/01/03 00:00:22;;;;;;;84.53;32.40;;;4.40;99.90;;;-146.47;100.00;66290.13;4900126;29;20200;-81
2021/01/03 00:03:07;;;;;;;81.80;31.87;;;4.40;99.90;;;-146.47;100.00;66290.13;4901023;29;20284;-82
2021/01/03 00:05:52;;;;;;;88.80;34.80;;;4.40;99.90;;;-146.47;100.00;66290.13;4901271;29;20257;-82
2021/01/03 00:08:37;;;;;;;99.10;33.63;;;4.40;99.90;;;-146.47;100.00;66290.13;4902575;29;20240;-82
2021/01/03 00:11:23;;;;;;;96.47;35.60;;;4.60;99.90;;;-146.47;100.00;66290.13;4906580;29;20216;-81
2021/01/03 00:14:09;;;;;;;84.70;35.20;;;4.40;99.90;;;-146.47;100.00;66290.13;4894764;29;20590;-81
2021/01/03 00:16:59;;;;;;;87.97;32.37;;;4.40;99.90;;;-146.47;100.00;66290.13;4900207;29;20247;-82
2021/01/03 00:19:44;;;;;;;75.50;29.13;;;4.50;99.90;;;-146.47;100.00;66290.13;4899707;29;20224;-81
2021/01/03 00:22:29;;;;;;;71.47;28.03;;;4.40;99.90;;;-146.47;100.00;66290.13;4893586;29;20691;-80
2021/01/03 00:25:15;;;;;;;81.50;30.87;;;4.50;99.90;;;-146.47;100.00;66290.13;4900611;29;20224;-82
2021/01/03 00:28:01;;;;;;;75.30;29.73;;;4.40;99.90;;;-146.47;100.00;66290.13;4899767;29;20256;-82
2021/01/03 00:30:46;;;;;;;82.93;31.37;;;4.40;99.90;;;-146.47;100.00;66290.13;4905100;29;20237;-80
2021/01/03 00:33:31;;;;;;;82.83;33.50;;;4.40;99.90;;;-146.47;100.00;66290.13;4902253;29;20231;-81
2021/01/03 00:36:17;;;;;;;82.40;30.27;;;4.40;99.90;;;-146.47;100.00;66290.13;4894032;29;20583;-81
2021/01/03 00:39:05;;;;;;;96.50;34.43;;;4.40;99.90;;;-146.47;100.00;66290.13;4901130;29;20233;-80
2021/01/03 00:41:51;;;;;;;100.17;32.57;;;4.40;99.90;;;-146.47;100.00;66290.13;4896440;29;20405;-81
2021/01/03 00:44:37;;;;;;;78.03;28.90;;;4.50;99.90;;;-146.47;100.00;66290.13;4901770;29;20602;-81
2021/01/03 00:47:23;;;;;;;77.20;30.13;;;4.50;99.90;;;-146.47;100.00;66290.13;4900734;29;20208;-80
2021/01/03 00:50:11;;;;;;;91.10;33.07;;;4.50;99.90;;;-146.47;100.00;66290.13;4899548;29;20236;-81
2021/01/03 00:52:57;;;;;;;84.97;30.27;;;4.50;99.90;;;-146.47;100.00;66290.13;4910139;29;20292;-81
2021/01/03 00:55:41;;;;;;;73.30;30.47;;;4.40;99.90;;;-146.47;100.00;66290.13;4906268;29;20248;-81
2021/01/03 00:58:27;;;;;;;81.13;30.80;;;4.50;99.90;;;-146.47;100.00;66290.13;4894643;29;20687;-81
2021/01/03 01:01:13;;;;;;;80.50;30.60;;;4.50;99.90;;;-146.47;100.00;66290.13;4907568;29;20253;-81
2021/01/03 01:03:58;;;;;;;83.83;29.17;;;4.50;99.90;;;-146.47;100.00;66290.13;4905131;29;20294;-81
2021/01/03 01:06:43;;;;;;;69.13;28.60;;;4.40;99.90;;;-146.47;100.00;66290.13;4902363;29;20208;-81
2021/01/03 01:09:29;;;;;;;66.70;27.90;;;4.50;99.90;;;-146.47;100.00;66290.13;4906759;29;20285;-80
2021/01/03 01:12:14;;;;;;;68.17;28.17;;;4.50;99.90;;;-146.47;100.00;66290.13;4894408;29;20248;-82
2021/01/03 01:14:59;;;;;;;63.70;25.87;;;4.50;99.90;;;-146.47;100.00;66290.13;4898751;29;20306;-83
2021/01/03 01:17:46;;;;;;;63.20;25.77;;;4.50;99.90;;;-146.47;100.00;66290.13;4898851;29;20229;-81
2021/01/03 01:20:34;;;;;;;59.97;26.03;;;4.50;99.90;;;-146.47;100.00;66290.13;4905309;29;20576;-82
2021/01/03 01:23:19;;;;;;;55.40;25.13;;;4.50;99.90;;;-146.47;100.00;66290.13;4900873;29;20768;-81
2021/01/03 01:26:05;;;;;;;70.13;30.30;;;4.50;99.90;;;-146.47;100.00;66290.13;4886403;29;20228;-82
2021/01/03 01:28:50;;;;;;;74.27;28.20;;;4.50;99.90;;;-146.47;100.00;66290.13;4902386;29;20207;-82
2021/01/03 01:31:35;;;;;;;72.63;28.53;;;4.50;99.90;;;-146.47;100.00;66290.13;4901274;29;20599;-82
2021/01/03 01:34:21;;;;;;;67.80;26.73;;;4.40;99.90;;;-146.47;100.00;66290.13;4905499;29;20236;-82
2021/01/03 01:37:06;;;;;;;72.30;29.33;;;4.40;99.90;;;-146.47;100.00;66290.13;4890548;29;20292;-82
2021/01/03 01:39:52;;;;;;;68.53;26.50;;;4.40;99.90;;;-146.47;100.00;66290.13;4899074;29;20242;-80
2021/01/03 01:42:37;;;;;;;64.03;26.37;;;4.70;99.90;;;-146.47;100.00;66290.13;4901851;29;20268;-83
2021/01/03 01:45:27;;;;;;;73.27;28.60;;;4.40;99.90;;;-146.47;100.00;66290.13;4902225;29;20652;-81
2021/01/03 01:48:19;;;;;;;66.10;28.40;;;4.40;99.90;;;-146.47;100.00;66290.13;4889153;29;20216;-81
2021/01/03 01:51:19;;;;;;;63.13;26.93;;;4.40;99.90;;;-146.47;100.00;66290.13;4897980;29;20729;-81
2021/01/03 01:54:12;;;;;;;75.30;27.80;;;4.40;99.90;;;-146.47;100.00;66290.13;4903396;29;20277;-80
2021/01/03 01:57:04;;;;;;;73.57;27.97;;;4.40;99.90;;;-146.47;100.00;66290.13;4885318;29;20228;-80
2021/01/03 01:59:59;;;;;;;75.70;30.73;;;4.40;99.90;;;-146.47;100.00;66290.13;4892562;29;20268;-83
2021/01/03 02:02:55;;;;;;;74.30;29.40;;;4.40;99.90;;;-146.47;100.00;66290.13;4890694;29;20220;-81
2021/01/03 02:05:48;;;;;;;74.30;28.67;;;4.30;99.90;;;-146.47;100.00;66290.13;4902623;29;20288;-80
2021/01/03 02:08:43;;;;;;;75.37;28.83;;;4.40;99.90;;;-146.47;100.00;66290.13;4892867;29;20212;-82
2021/01/03 02:11:31;;;;;;;82.03;29.43;;;4.40;99.90;;;-146.47;100.00;66290.13;4903258;29;20240;-81
2021/01/03 02:14:17;;;;;;;72.33;27.57;;;4.40;99.90;;;-146.47;100.00;66290.13;4904280;29;20257;-82
2021/01/03 02:17:02;;;;;;;66.50;27.60;;;4.40;99.90;;;-146.47;100.00;66290.13;4897314;29;20251;-79
2021/01/03 02:19:50;;;;;;;78.07;30.50;;;4.40;99.90;;;-146.47;100.00;66290.13;4903276;29;20440;-81
2021/01/03 02:22:41;;;;;;;74.90;27.37;;;4.40;99.90;;;-146.47;100.00;66290.13;4903024;29;20228;-82
2021/01/03 02:25:27;;;;;;;78.10;30.00;;;4.40;99.90;;;-146.47;100.00;66290.13;4908988;29;20262;-82
2021/01/03 02:28:19;;;;;;;84.00;32.33;;;4.40;99.90;;;-146.47;100.00;66290.13;4907803;29;20207;-79
2021/01/03 02:31:05;;;;;;;85.40;31.87;;;4.40;99.90;;;-146.47;100.00;66290.13;4905224;29;20636;-83
2021/01/03 02:33:53;;;;;;;79.07;29.17;;;4.50;99.90;;;-146.47;100.00;66290.13;4896526;29;20289;-81
2021/01/03 02:36:43;;;;;;;75.53;27.90;;;4.40;99.90;;;-146.47;100.00;66290.13;4908311;29;20231;-81
2021/01/03 02:39:42;;;;;;;75.83;28.87;;;4.40;99.90;;;-146.47;100.00;66290.13;4903959;29;20605;-80
2021/01/03 02:42:33;;;;;;;81.67;29.83;;;4.40;99.90;;;-146.47;100.00;66290.13;4900391;29;20212;-81
2021/01/03 02:45:22;;;;;;;87.67;32.20;;;4.40;99.90;;;-146.47;100.00;66290.13;4906694;29;20308;-82
2021/01/03 02:48:14;;;;;;;74.67;28.47;;;4.40;99.90;;;-146.47;100.00;66290.13;4905478;29;20949;-79
2021/01/03 02:50:59;;;;;;;83.77;31.30;;;4.40;99.90;;;-146.47;100.00;66290.13;4909470;29;20245;-82
2021/01/03 02:53:44;;;;;;;88.50;31.70;;;4.40;99.90;;;-146.47;100.00;66290.13;4909732;29;20216;-79
2021/01/03 02:56:30;;;;;;;92.70;30.97;;;4.40;99.90;;;-146.47;100.00;66290.13;4910363;29;20224;-81
2021/01/03 02:59:16;;;;;;;81.47;28.57;;;4.40;99.90;;;-146.47;100.00;66290.13;4898967;29;20257;-82
2021/01/03 03:02:01;;;;;;;84.70;31.63;;;4.50;99.90;;;-146.47;100.00;66290.13;4910467;29;20255;-81
2021/01/03 03:04:48;;;;;;;90.27;30.90;;;4.60;99.90;;;-146.47;100.00;66290.13;4907725;29;20243;-80
2021/01/03 03:07:33;;;;;;;79.40;31.00;;;4.50;99.90;;;-146.47;100.00;66290.13;4904019;29;20203;-79
2021/01/03 03:10:20;;;;;;;81.73;30.43;;;4.50;99.90;;;-146.47;100.00;66290.13;4910870;29;20562;-82
2021/01/03 03:13:05;;;;;;;75.67;29.43;;;4.50;99.90;;;-146.47;100.00;66290.13;4904195;29;20340;-82
2021/01/03 03:15:51;;;;;;;76.97;29.80;;;4.50;99.90;;;-146.47;100.00;66290.13;4908274;29;20243;-81
2021/01/03 03:18:36;;;;;;;84.97;29.33;;;4.50;99.90;;;-146.47;100.00;66290.13;4906755;29;20216;-81
2021/01/03 03:21:22;;;;;;;85.97;29.70;;;4.50;99.90;;;-146.47;100.00;66290.13;4896423;29;20204;-82
2021/01/03 03:24:07;;;;;;;84.53;30.60;;;4.50;99.90;;;-146.47;100.00;66290.13;4904283;29;20239;-81
2021/01/03 03:26:56;;;;;;;86.50;30.80;;;4.50;99.90;;;-146.47;100.00;66290.13;4905915;29;20296;-82
2021/01/03 03:29:41;;;;;;;86.03;32.63;;;4.50;99.90;;;-146.47;100.00;66290.13;4903163;29;20212;-81
2021/01/03 03:32:27;;;;;;;84.47;32.23;;;4.50;99.90;;;-146.47;100.00;66290.13;4908045;29;20237;-82
2021/01/03 03:35:14;;;;;;;82.57;28.47;;;4.50;99.90;;;-146.47;100.00;66290.13;4905739;29;20301;-80
2021/01/03 03:37:59;;;;;;;82.40;31.17;;;4.50;99.90;;;-146.47;100.00;66290.13;4896922;29;20211;-81
2021/01/03 03:40:44;;;;;;;72.37;27.97;;;4.50;99.90;;;-146.47;100.00;66290.13;4901640;29;20216;-81
2021/01/03 03:43:29;;;;;;;81.63;30.27;;;4.50;99.90;;;-146.47;100.00;66290.13;4906947;29;20216;-83
2021/01/03 03:46:15;;;;;;;87.07;30.50;;;4.50;99.90;;;-146.47;100.00;66290.13;4922367;29;20510;-80
2021/01/03 03:49:01;;;;;;;85.50;31.87;;;4.50;99.90;;;-146.47;100.00;66290.13;4924473;28;20275;-78
2021/01/03 03:51:47;;;;;;;69.90;29.83;;;4.50;99.90;;;-146.47;100.00;66290.13;4918727;29;20196;-81
2021/01/03 03:54:33;;;;;;;86.97;30.93;;;4.50;99.90;;;-146.47;100.00;66290.13;4922268;29;20265;-79
2021/01/03 03:57:19;;;;;;;86.47;30.57;;;4.50;99.90;;;-146.47;100.00;66290.13;4904563;29;20251;-82
2021/01/03 04:00:07;;;;;;;89.90;32.77;;;4.50;99.90;;;-146.47;100.00;66290.13;4902223;29;20228;-81
2021/01/03 04:02:52;;;;;;;84.27;30.80;;;4.50;99.90;;;-146.47;100.00;66290.13;4905551;29;20280;-80
2021/01/03 04:05:38;;;;;;;76.57;30.73;;;4.50;99.90;;;-146.47;100.00;66290.13;4905997;29;20236;-82
2021/01/03 04:08:24;;;;;;;78.60;28.83;;;4.50;99.90;;;-146.47;100.00;66290.13;4897139;29;20579;-79
2021/01/03 04:11:09;;;;;;;76.57;30.27;;;4.50;99.90;;;-146.47;100.00;66290.13;4905252;29;20253;-80
2021/01/03 04:13:54;;;;;;;74.77;29.43;;;4.50;99.90;;;-146.47;100.00;66290.13;4903668;29;20704;-80
2021/01/03 04:16:45;;;;;;;76.87;28.40;;;4.50;99.90;;;-146.47;100.00;66290.13;4902538;29;21033;-80
2021/01/03 04:19:31;;;;;;;72.53;28.50;;;4.50;99.90;;;-146.47;100.00;66290.13;4892903;29;20216;-80
2021/01/03 04:22:17;;;;;;;80.23;32.00;;;4.50;99.90;;;-146.47;100.00;66290.13;4902664;29;20220;-80
2021/01/03 04:25:02;;;;;;;78.43;30.17;;;4.50;99.90;;;-146.47;100.00;66290.13;4902859;29;20242;-79
2021/01/03 04:27:48;;;;;;;73.97;28.10;;;4.50;99.90;;;-146.47;100.00;66290.13;4895290;29;20576;-82
2021/01/03 04:30:33;;;;;;;77.47;28.30;;;4.50;99.90;;;-146.47;100.00;66290.13;4905100;29;20237;-83
2021/01/03 04:33:18;;;;;;;71.73;28.50;;;4.50;99.90;;;-146.47;100.00;66290.13;4894709;29;20772;-81
2021/01/03 04:36:04;;;;;;;72.97;29.67;;;4.40;99.90;;;-146.47;100.00;66290.13;4896304;29;20224;-81
2021/01/03 04:38:50;;;;;;;67.70;28.47;;;4.40;99.90;;;-146.47;100.00;66290.13;4905678;29;20303;-80
2021/01/03 04:41:40;;;;;;;68.77;27.67;;;4.40;99.90;;;-146.47;100.00;66290.13;4898476;29;20280;-81
2021/01/03 04:44:34;;;;;;;76.43;28.53;;;4.40;99.90;;;-146.47;100.00;66290.13;4898011;29;20714;-80
2021/01/03 04:47:27;;;;;;;74.73;28.83;;;4.40;99.90;;;-146.47;100.00;66290.13;4886691;29;20205;-81
2021/01/03 04:50:36;;;;;;;71.63;28.00;;;4.40;99.90;;;-146.47;100.00;66290.13;4885796;29;20234;-79
2021/01/03 04:53:39;;;;;;;77.57;29.03;;;4.40;99.90;;;-146.47;100.00;66290.13;4889828;29;20603;-80
2021/01/03 04:56:51;;;;;;;78.57;28.53;;;4.40;99.90;;;-146.47;100.00;66290.13;4888783;29;20316;-81
2021/01/03 04:59:44;;;;;;;75.83;29.27;;;4.40;99.90;;;-146.47;100.00;66290.13;4898322;29;20211;-81
2021/01/03 05:03:06;;;;;;;77.03;30.10;;;4.30;99.90;;;-146.47;100.00;66290.13;4904064;29;20211;-81
2021/01/03 05:05:53;;;;;;;88.53;32.10;;;4.30;99.90;;;-146.47;100.00;66290.13;4887131;29;20236;-81
2021/01/03 05:08:44;;;;;;;78.70;29.27;;;4.30;99.90;;;-146.47;100.00;66290.13;4881646;29;20696;-80
2021/01/03 05:11:43;;;;;;;76.50;29.23;;;4.30;99.90;;;-146.47;100.00;66290.13;4889476;29;20245;-80
2021/01/03 05:14:36;;;;;;;85.80;30.90;;;4.30;99.90;;;-146.47;100.00;66290.13;4902818;29;20365;-80
2021/01/03 05:17:22;;;;;;;80.33;31.43;;;4.30;99.90;;;-146.47;100.00;66290.13;4887008;29;20349;-81
2021/01/03 05:20:08;;;;;;;82.33;31.50;;;4.30;99.90;;;-146.47;100.00;66290.13;4899756;29;20224;-81
2021/01/03 05:22:53;;;;;;;80.87;31.20;;;4.30;99.90;;;-146.47;100.00;66290.13;4902173;29;20219;-79
2021/01/03 05:25:41;;;;;;;84.90;33.20;;;4.30;99.90;;;-146.47;100.00;66290.13;4904069;29;20249;-81
2021/01/03 05:28:33;;;;;;;98.10;36.53;;;4.30;99.90;;;-146.47;100.00;66290.13;4904090;29;20225;-82
2021/01/03 05:31:22;;;;;;;91.60;32.83;;;4.30;99.90;;;-146.47;100.00;66290.13;4902241;29;20722;-80
2021/01/03 05:34:10;;;;;;;90.97;32.57;;;4.30;99.90;;;-146.47;100.00;66290.13;4903995;29;20209;-80
2021/01/03 05:37:06;;;;;;;79.27;30.33;;;4.30;99.90;;;-146.47;100.00;66290.13;4904219;29;20243;-83
2021/01/03 05:39:52;;;;;;;95.93;35.47;;;4.30;99.90;;;-146.47;100.00;66290.13;4904430;29;21071;-80
2021/01/03 05:42:38;;;;;;;86.40;36.40;;;4.30;99.90;;;-146.47;100.00;66290.13;4889211;29;20861;-81
2021/01/03 05:45:28;;;;;;;85.83;33.07;;;4.30;99.90;;;-146.47;100.00;66290.13;4905288;29;20227;-80
2021/01/03 05:48:24;;;;;;;77.13;32.40;;;4.30;99.90;;;-146.47;100.00;66290.13;4889894;29;20228;-81
2021/01/03 05:51:30;;;;;;;76.70;31.17;;;4.30;99.90;;;-146.47;100.00;66290.13;4902704;29;20260;-82
2021/01/03 05:54:22;;;;;;;92.17;31.77;;;4.30;99.90;;;-146.47;100.00;66290.13;4901868;29;20253;-81
2021/01/03 05:57:11;;;;;;;78.43;31.87;;;4.30;99.90;;;-146.47;100.00;66290.13;4902165;29;20227;-81
2021/01/03 05:59:57;;;;;;;77.77;29.60;;;4.30;99.90;;;-146.47;100.00;66290.13;4891056;29;20212;-81
2021/01/03 06:02:43;;;;;;;85.27;33.07;;;4.20;99.90;;;-146.47;100.00;66290.13;4904152;29;20216;-79
2021/01/03 06:05:28;;;;;;;100.27;34.70;;;4.20;99.90;;;-146.47;100.00;66290.13;4892819;29;20312;-80
2021/01/03 06:08:21;;;;;;;91.70;36.33;;;4.20;99.90;;;-146.47;100.00;66290.13;4881766;29;20283;-81
2021/01/03 06:11:17;;;;;;;83.17;32.23;;;4.30;99.90;;;-146.47;100.00;66290.13;4886337;29;20213;-81
2021/01/03 06:14:03;;;;;;;80.73;31.37;;;4.30;99.90;;;-146.47;100.00;66290.13;4891487;29;20208;-81
2021/01/03 06:16:48;;;;;;;87.63;34.23;;;4.20;99.90;;;-146.47;100.00;66290.13;4891151;29;20283;-80
2021/01/03 06:19:46;;;;;;;82.10;34.60;;;4.20;99.90;;;-146.47;100.00;66290.13;4894809;29;20548;-81
2021/01/03 06:22:46;;;;;;;81.10;32.57;;;4.20;99.90;;;-146.47;100.00;66290.13;4903392;29;20204;-81
2021/01/03 06:25:44;;;;;;;82.87;35.03;;;4.20;99.90;;;-146.47;100.00;66290.13;4897948;29;20289;-81
2021/01/03 06:28:45;;;;;;;88.37;35.80;;;4.20;99.90;;;-146.47;100.00;66290.13;4903988;29;20327;-79
2021/01/03 06:32:30;;;;;;;92.47;37.00;;;4.20;99.90;;;-146.47;100.00;66290.13;4899298;29;20208;-81
2021/01/03 06:35:31;;;;;;;101.07;37.90;;;4.20;99.90;;;-146.47;100.00;66290.13;4896698;29;20235;-80
2021/01/03 06:38:42;;;;;;;96.60;38.57;;;4.20;99.90;;;-146.47;100.00;66290.13;4895726;29;20215;-81
2021/01/03 06:41:49;;;;;;;98.93;36.17;;;4.20;99.90;;;-146.47;100.00;66290.13;4894152;29;20239;-80
2021/01/03 06:45:14;;;;;;;87.03;36.10;;;4.20;99.90;;;-146.47;100.00;66290.13;4890268;29;20246;-81
2021/01/03 06:48:46;;;;;;;92.80;35.83;;;4.20;99.90;;;-146.47;100.00;66290.13;4885226;29;20271;-83
2021/01/03 06:52:30;;;;;;;94.10;37.20;;;4.20;99.90;;;-146.47;100.00;66290.13;4893376;29;20236;-80
2021/01/03 06:55:52;;;;;;;92.77;38.57;;;4.20;99.90;;;-146.47;100.00;66290.13;4894162;29;20248;-80
2021/01/03 06:59:23;;;;;;;90.63;36.10;;;4.20;99.90;;;-146.47;100.00;66290.13;4894653;29;20257;-81
2021/01/03 07:02:09;;;;;;;86.57;36.00;;;4.20;99.90;;;-146.47;100.00;66290.13;4891788;29;20216;-82
2021/01/03 07:04:55;;;;;;;84.60;36.10;;;4.20;99.90;;;-146.47;100.00;66290.13;4901732;29;20254;-81
2021/01/03 07:07:53;;;;;;;69.93;29.60;;;4.20;99.90;;;-146.47;100.00;66290.13;4888792;29;20229;-82
2021/01/03 07:10:41;;;;;;;80.20;33.33;;;4.20;99.90;;;-146.47;100.00;66290.13;4894018;29;20234;-82
2021/01/03 07:13:42;;;;;;;88.87;36.73;;;4.20;99.90;;;-146.47;100.00;66290.13;4906095;29;20220;-81
2021/01/03 07:16:54;;;;;;;68.67;32.00;;;4.20;99.90;;;-146.47;100.00;66290.13;4907586;29;20230;-82
2021/01/03 07:19:49;;;;;;;79.43;32.97;;;4.20;99.90;;;-146.47;100.00;66290.13;4899609;29;20329;-82
2021/01/03 07:23:01;;;;;;;78.03;33.00;;;4.20;99.90;;;-146.47;100.00;66290.13;4905990;29;20431;-81
2021/01/03 07:26:18;;;;;;;71.50;34.17;;;4.20;99.90;;;-146.47;100.00;66290.13;4904896;29;20232;-81
2021/01/03 07:29:16;;;;;;;84.87;34.43;;;4.20;99.90;;;-146.47;100.00;66290.13;4901817;29;20216;-81
2021/01/03 07:32:05;;;;;;;81.47;34.40;;;4.20;99.90;;;-146.47;100.00;66290.13;4902245;29;20293;-81
2021/01/03 07:34:53;;;;;;;72.57;32.70;;;4.20;99.90;;;-146.47;100.00;66290.13;4897127;29;20641;-82
2021/01/03 07:37:39;;;;;;;73.30;33.27;;;4.20;99.90;;;-146.47;100.00;66290.13;4907643;29;20240;-83
2021/01/03 07:40:25;;;;;;;69.77;32.57;;;4.20;99.90;;;-146.47;100.00;66290.13;4897866;29;20289;-80
2021/01/03 07:43:10;;;;;;;77.07;33.33;;;4.20;99.90;;;-146.47;100.00;66290.13;4902311;29;20229;-81
2021/01/03 07:45:55;;;;;;;62.60;30.90;;;4.20;99.90;;;-146.47;100.00;66290.13;4901919;29;20595;-81
2021/01/03 07:48:42;;;;;;;68.20;30.63;;;4.20;99.90;;;-146.47;100.00;66290.13;4895434;29;20268;-79
2021/01/03 07:51:43;;;;;;;63.33;30.00;;;4.20;99.90;;;-146.47;100.00;66290.13;4893682;29;20216;-79
2021/01/03 07:54:29;;;;;;;66.43;32.57;;;4.20;99.90;;;-146.47;100.00;66290.13;4900569;29;20248;-80
2021/01/03 07:57:15;;;;;;;68.30;30.73;;;4.20;99.90;;;-146.47;100.00;66290.13;4902042;29;20660;-81
2021/01/03 08:00:01;;;;;;;61.23;29.83;;;4.20;99.90;;;-146.47;100.00;66290.13;4900443;29;20830;-80
2021/01/03 08:02:46;;;;;;;61.57;28.57;;;4.10;99.90;;;-146.47;100.00;66290.13;4902303;29;20235;-79
2021/01/03 08:05:33;;;;;;;66.37;32.97;;;4.30;99.90;;;-146.47;100.00;66290.13;4897480;29;20924;-80
2021/01/03 08:08:22;;;;;;;65.13;29.87;;;4.40;99.90;;;-146.47;100.00;66290.13;4897481;29;20247;-80
2021/01/03 08:11:22;;;;;;;55.93;27.60;;;4.20;99.90;;;-146.47;100.00;66290.13;4905768;29;20245;-81
2021/01/03 08:14:23;;;;;;;62.50;28.37;;;4.10;99.90;;;-146.47;100.00;66290.13;4895673;29;20212;-79
2021/01/03 08:17:19;;;;;;;54.60;26.60;;;4.20;99.90;;;-146.47;100.00;66290.13;4890165;29;20231;-79
2021/01/03 08:20:11;;;;;;;48.70;25.57;;;4.20;99.90;;;-146.47;100.00;66290.13;4890878;29;20234;-81
2021/01/03 08:23:24;;;;;;;53.43;25.83;;;4.30;99.90;;;-146.47;100.00;66290.13;4893589;29;20212;-80
2021/01/03 08:26:16;;;;;;;46.53;23.57;;;4.20;99.90;;;-146.47;100.00;66290.13;4896875;29;20227;-82
2021/01/03 08:29:08;;;;;;;51.37;26.80;;;4.20;99.90;;;-146.47;100.00;66290.13;4895775;29;20292;-81
2021/01/03 08:31:59;;;;;;;46.47;22.67;;;4.20;99.90;;;-146.47;100.00;66290.13;4891493;29;20695;-80
2021/01/03 08:34:44;;;;;;;46.60;24.90;;;4.20;99.90;;;-146.47;100.00;66290.13;4894880;29;20229;-82
2021/01/03 08:37:36;;;;;;;48.40;25.13;;;4.20;99.90;;;-146.47;100.00;66290.13;4899792;29;20240;-83
2021/01/03 08:40:26;;;;;;;47.33;25.90;;;4.20;99.90;;;-146.47;100.00;66290.13;4895047;29;20216;-81
2021/01/03 08:43:18;;;;;;;50.03;26.23;;;4.30;99.90;;;-146.47;100.00;66290.13;4896649;29;20207;-81
2021/01/03 08:46:08;;;;;;;48.97;23.47;;;4.30;99.90;;;-146.47;100.00;66290.13;4893240;29;21091;-81
2021/01/03 08:49:01;;;;;;;43.53;23.37;;;4.30;99.90;;;-146.47;100.00;66290.13;4897809;29;20296;-81
2021/01/03 08:51:46;;;;;;;44.73;25.03;;;4.30;99.90;;;-146.47;100.00;66290.13;4895407;29;20532;-80
2021/01/03 08:54:31;;;;;;;45.47;22.90;;;4.30;99.90;;;-146.47;100.00;66290.13;4898374;29;20601;-80
2021/01/03 08:57:19;;;;;;;42.80;23.67;;;4.30;99.90;;;-146.47;100.00;66290.13;4898639;29;20844;-81
2021/01/03 09:00:09;;;;;;;47.00;23.37;;;4.30;99.90;;;-146.47;100.00;66290.13;4896458;29;20225;-82
2021/01/03 09:02:58;;;;;;;45.17;23.40;;;4.30;99.90;;;-146.47;100.00;66290.13;4898132;29;20253;-81
2021/01/03 09:05:48;;;;;;;40.27;20.23;;;4.30;99.90;;;-146.47;100.00;66290.13;4896021;29;20604;-82
2021/01/03 09:08:38;;;;;;;41.47;22.10;;;4.30;99.90;;;-146.47;100.00;66290.13;4893560;29;20296;-80
2021/01/03 09:11:29;;;;;;;43.60;22.07;;;4.40;99.90;;;-146.47;100.00;66290.13;4895216;29;20230;-80
2021/01/03 09:14:27;;;;;;;44.80;23.30;;;4.30;99.90;;;-146.47;100.00;66290.13;4906553;29;20235;-81
2021/01/03 09:17:18;;;;;;;37.23;20.40;;;4.40;99.90;;;-146.47;100.00;66290.13;4896692;29;20388;-80
2021/01/03 09:20:19;;;;;;;38.37;21.37;;;4.40;99.90;;;-146.47;100.00;66290.13;4900918;29;20224;-81
2021/01/03 09:23:10;;;;;;;39.13;20.20;;;4.40;99.90;;;-146.47;100.00;66290.13;4894635;29;20219;-81
2021/01/03 09:25:58;;;;;;;36.93;18.80;;;4.40;99.90;;;-146.47;100.00;66290.13;4895564;29;20229;-80
2021/01/03 09:28:44;;;;;;;31.77;16.33;;;4.40;99.90;;;-146.47;100.00;66290.13;4899344;29;20208;-79
2021/01/03 09:31:29;;;;;;;29.10;15.73;;;4.40;99.90;;;-146.47;100.00;66290.13;4901213;29;20219;-80
2021/01/03 09:34:29;;;;;;;30.73;16.63;;;4.40;99.90;;;-146.47;100.00;66290.13;4893601;29;20249;-80
2021/01/03 09:37:24;;;;;;;29.30;17.20;;;4.40;99.90;;;-146.47;100.00;66290.13;4897280;29;20350;-80
2021/01/03 09:40:37;;;;;;;26.87;15.70;;;4.50;99.90;;;-146.47;100.00;66290.13;4896679;29;20212;-81
2021/01/03 09:43:41;;;;;;;26.93;14.20;;;4.50;99.90;;;-146.47;100.00;66290.13;4892965;29;20240;-79
2021/01/03 09:46:32;;;;;;;26.53;14.60;;;4.50;99.90;;;-146.47;100.00;66290.13;4896264;29;20225;-79
2021/01/03 09:49:24;;;;;;;26.33;13.67;;;4.50;99.90;;;-146.47;100.00;66290.13;4886846;29;20224;-80
2021/01/03 09:52:22;;;;;;;25.60;13.30;;;4.50;99.90;;;-146.47;100.00;66290.13;4888386;29;20573;-81
2021/01/03 09:55:14;;;;;;;23.17;12.87;;;4.50;99.90;;;-146.47;100.00;66290.13;4890233;29;20246;-80
2021/01/03 09:58:07;;;;;;;21.37;12.27;;;4.50;99.90;;;-146.47;100.00;66290.13;4893437;29;20334;-81
2021/01/03 10:00:56;;;;;;;21.77;12.07;;;4.50;99.90;;;-146.47;100.00;66290.13;4903553;29;20256;-79
2021/01/03 10:03:44;;;;;;;20.73;11.87;;;4.50;99.90;;;-146.47;100.00;66290.13;4888869;29;20237;-80
2021/01/03 10:06:33;;;;;;;18.67;10.23;;;4.50;99.90;;;-146.47;100.00;66290.13;4895336;29;20584;-82
2021/01/03 10:09:32;;;;;;;19.20;11.37;;;4.60;99.90;;;-146.47;100.00;66290.13;4902122;29;20249;-80
2021/01/03 10:12:21;;;;;;;17.60;9.63;;;4.60;99.90;;;-146.47;100.00;66290.13;4913497;29;20436;-78
2021/01/03 10:15:24;;;;;;;18.50;9.90;;;4.60;99.90;;;-146.47;100.00;66290.13;4910508;29;20216;-79
2021/01/03 10:18:13;;;;;;;20.00;10.97;;;4.60;99.90;;;-146.47;100.00;66290.13;4914772;29;20263;-80
2021/01/03 10:21:01;;;;;;;17.57;9.37;;;4.60;99.90;;;-146.47;100.00;66290.13;4910392;29;20200;-79
2021/01/03 10:23:54;;;;;;;18.73;10.57;;;4.60;99.90;;;-146.47;100.00;66290.13;4895956;29;20219;-81
2021/01/03 10:26:41;;;;;;;15.43;9.40;;;4.60;99.90;;;-146.47;100.00;66290.13;4899039;29;20711;-79
2021/01/03 10:29:26;;;;;;;13.33;7.63;;;4.60;99.90;;;-146.47;100.00;66290.13;4898661;29;20680;-80
2021/01/03 10:32:12;;;;;;;18.13;9.93;;;4.60;99.90;;;-146.47;100.00;66290.13;4890816;29;20216;-82
2021/01/03 10:34:57;;;;;;;17.93;10.03;;;4.70;99.90;;;-146.47;100.00;66290.13;4891874;29;20277;-78
2021/01/03 10:37:42;;;;;;;16.57;9.27;;;4.70;99.90;;;-146.47;100.00;66290.13;4895401;29;20220;-79
2021/01/03 10:40:28;;;;;;;17.00;8.73;;;4.70;99.90;;;-146.47;100.00;66290.13;4896055;29;20575;-79
2021/01/03 10:43:13;;;;;;;17.87;9.40;;;4.70;99.90;;;-146.47;100.00;66290.13;4889375;29;20248;-79
2021/01/03 10:45:58;;;;;;;15.30;9.10;;;4.70;99.90;;;-146.47;100.00;66290.13;4895183;29;20318;-82
2021/01/03 10:48:44;;;;;;;15.27;9.30;;;4.80;99.90;;;-146.47;100.00;66290.13;4898834;29;20214;-81
2021/01/03 10:51:33;;;;;;;17.60;10.07;;;4.80;99.90;;;-146.47;100.00;66290.13;4893804;29;20705;-80
2021/01/03 10:54:21;;;;;;;17.67;9.47;;;4.80;99.90;;;-146.47;100.00;66290.13;4897268;29;20362;-81
2021/01/03 10:57:07;;;;;;;18.77;10.00;;;4.80;99.90;;;-146.47;100.00;66290.13;4890760;29;20742;-80
2021/01/03 10:59:54;;;;;;;19.03;10.43;;;4.80;99.90;;;-146.47;100.00;66290.13;4896700;29;20233;-79
2021/01/03 11:02:39;;;;;;;18.10;9.40;;;4.90;99.90;;;-146.47;100.00;66290.13;4897349;29;20233;-81
2021/01/03 11:08:07;;;;;;;15.30;9.40;;;4.90;99.90;;;-146.47;100.00;66290.13;5040569;23;20261;-74
2021/01/03 11:11:14;;;;;;;16.43;10.07;;;4.90;99.90;;;-146.47;100.00;66290.13;4871117;29;20220;-76
2021/01/03 11:14:45;;;;;;;17.63;10.10;;;4.90;99.90;;;-146.47;100.00;66290.13;4856568;29;20269;-77
2021/01/03 11:17:52;;;;;;;16.73;9.53;;;5.00;99.90;;;-146.47;100.00;66290.13;4874753;29;20371;-75
2021/01/03 11:20:37;;;;;;;18.10;10.57;;;5.00;99.90;;;-146.47;100.00;66290.13;4874425;29;20561;-74
2021/01/03 11:23:23;;;;;;;17.10;9.27;;;5.00;99.90;;;-146.47;100.00;66290.13;4870075;29;20208;-75
2021/01/03 11:26:08;;;;;;;22.40;10.77;;;5.00;99.90;;;-146.47;100.00;66290.13;4874335;29;20694;-75
2021/01/03 11:28:54;;;;;;;18.80;10.13;;;5.00;99.90;;;-146.47;100.00;66290.13;4872660;29;20235;-76
2021/01/03 11:31:44;;;;;;;17.67;9.83;;;5.00;99.90;;;-146.47;100.00;66290.13;4876588;29;20691;-75